الصفحة الرئيسية
METAR-TAF:

METAR-TAF

مطار :

لاس فيغاس, نيومكسيكو, الولايات المتحدة

دائرة عرض: 35-39-15N, خط طول: 105-08-33W, ارتفاع: 2096 متر

مراقبة الطقس الحالي

تاريخ ووقت الإصدار 1ساعة و 10 دقيقة قبل الساعة 04:53UTC
ريح 5 عقدة من الشمال/الشمال الغربي
درجة الحرارة -6°درجة مئوية
الرطوبة 41%
ضغط 1024 hPa
الرؤية: 16.1 كم
سماء صافية

METAR: KLVS 140453Z AUTO 34005KT 10SM CLR M06/M17 A3025 RMK AO2 SLP250 T10611172

زمن: 23:03 (06:03 UTC)

توقعات

تاريخ ووقت الإصدار 43 دقيقة قبل الساعة 05:20UTC
التوقعات صالحة من14 الساعة 06 UTC إلى 15 الساعة 06 UTC
ريح 5 عقدة من الشمال/الشمال الشرقي
الرؤية: 10 كم
سماء صافية
من 14 الساعة 1900 UTC
ريح 7 عقدة من الجنوب
الرؤية: 10 كم
سماء صافية

TAF: KLVS 140520Z 1406/1506 02005KT P6SM SKC FM141900 17007KT P6SM SKC

أرصاد الطقس والتوقعات من أكثر من 4000 مطار (تقارير الطقس للمطار METAR والتنبؤ بالطقس بالمطارTAF).

المحطات المتاحة هي النقط الصفراء والحمراء على الخريطة.

حرك المؤشر فوق النقطة لمعرفة اسم المحطة.

ثم انقر لمعرفة أرصاد وتوقعات الطقس.

لتغيير الخارطة: اضغط على الأزرار الخضراء مع رمز الصليب الأسود للتكبير. على الزر الأخضر مع شرطة للتصغير، أو على الأسهم الخضراء للخرائط المجاورة.


METAR-TAF: